Time;durP1;ratioP1;P1;durP2;ratioP2;P2;SDS_P1;SDS_P2;PMS_P1;PMS_P2;Temp;Humidity;BMP_temperature;BMP_pressure;BME280_temperature;BME280_humidity;BME280_pressure;Samples;Min_cycle;Max_cycle;Signal;HPM_P1;HPM_P2
2023/09/24 00:01:40;;;;;;;7.15;3.10;;;;;;;10.84;90.71;101397.00;5123299;27;20042;-69
2023/09/24 00:04:44;;;;;;;7.30;3.22;;;;;;;10.92;90.45;101408.03;5123643;27;20560;-68
2023/09/24 00:07:49;;;;;;;7.85;3.15;;;;;;;10.71;91.17;101412.31;5124164;27;20130;-69
2023/09/24 00:10:52;;;;;;;6.82;3.67;;;;;;;10.47;92.08;101419.34;5123505;27;20038;-69
2023/09/24 00:13:56;;;;;;;6.50;3.67;;;;;;;10.47;92.14;101420.19;5124313;27;20038;-69
2023/09/24 00:17:00;;;;;;;;;;;;;;;10.46;92.78;101422.84;5123252;27;20039;-69
2023/09/24 00:20:04;;;;;;;6.90;3.45;;;;;;;10.62;91.53;101418.75;5123656;27;19995;-69
2023/09/24 00:23:08;;;;;;;7.70;3.10;;;;;;;10.79;90.83;101425.97;5123854;27;20136;-69
2023/09/24 00:26:11;;;;;;;8.55;2.97;;;;;;;10.80;90.97;101422.44;5124678;27;20406;-69
2023/09/24 00:29:14;;;;;;;11.10;3.75;;;;;;;10.83;90.37;101430.16;5121692;27;20053;-69
2023/09/24 00:32:19;;;;;;;8.60;3.08;;;;;;;10.90;90.21;101438.63;5122358;27;20074;-69
2023/09/24 00:35:22;;;;;;;5.85;2.40;;;;;;;10.98;89.29;101436.56;5120384;27;20057;-69
2023/09/24 00:38:26;;;;;;;4.82;2.53;;;;;;;10.99;89.10;101443.50;5123518;27;20060;-69
2023/09/24 00:41:29;;;;;;;7.13;2.03;;;;;;;11.02;88.60;101448.63;5123075;27;20088;-69
2023/09/24 00:44:33;;;;;;;7.30;1.90;;;;;;;10.94;88.61;101438.47;5124151;27;20092;-69
2023/09/24 00:47:44;;;;;;;6.40;2.53;;;;;;;10.76;89.84;101439.16;5121278;27;20061;-68
2023/09/24 00:50:47;;;;;;;5.30;2.47;;;;;;;10.58;90.85;101450.31;5120410;28;20095;-68
2023/09/24 00:53:52;;;;;;;7.80;2.88;;;;;;;10.27;91.91;101448.81;5123873;28;20039;-68
2023/09/24 00:56:58;;;;;;;8.10;2.50;;;;;;;10.17;92.91;101452.66;5123394;28;20046;-68
2023/09/24 01:00:08;;;;;;;5.65;1.88;;;;;;;10.36;93.19;101438.03;5122123;28;20127;-68
2023/09/24 01:03:14;;;;;;;5.80;2.28;;;;;;;10.63;91.25;101440.56;5120242;28;20042;-68
2023/09/24 01:06:17;;;;;;;7.10;2.22;;;;;;;10.78;90.17;101439.94;5123745;28;20043;-68
2023/09/24 01:09:20;;;;;;;6.10;2.05;;;;;;;10.82;89.36;101446.78;5121157;28;20039;-68
2023/09/24 01:12:29;;;;;;;5.20;2.05;;;;;;;10.77;89.86;101446.09;5122538;28;20051;-69
2023/09/24 01:15:33;;;;;;;4.70;1.67;;;;;;;10.82;89.45;101446.78;5123242;27;20097;-69
2023/09/24 01:18:42;;;;;;;6.20;2.10;;;;;;;10.85;89.20;101444.06;5125868;27;20070;-69
2023/09/24 01:21:47;;;;;;;6.78;2.10;;;;;;;10.83;89.12;101448.47;5126335;27;20109;-69
2023/09/24 01:24:50;;;;;;;6.47;1.63;;;;;;;10.82;88.89;101452.00;5127609;27;20045;-69
2023/09/24 01:27:53;;;;;;;;;;;;;;;10.59;90.22;101459.84;5128249;27;20034;-69
2023/09/24 01:30:57;;;;;;;7.70;2.03;;;;;;;10.34;92.35;101452.94;5124966;27;19918;-69
2023/09/24 01:34:05;;;;;;;6.80;1.90;;;;;;;10.35;91.99;101465.09;5126039;27;20100;-68
2023/09/24 01:37:09;;;;;;;4.43;1.95;;;;;;;10.43;92.38;101455.22;5127152;27;20412;-68
2023/09/24 01:40:18;;;;;;;7.63;2.20;;;;;;;10.62;91.30;101454.50;5127759;27;20140;-69
2023/09/24 01:43:21;;;;;;;2.58;1.60;;;;;;;10.67;90.56;101453.44;5125176;27;20089;-69
2023/09/24 01:46:25;;;;;;;3.25;1.42;;;;;;;10.60;90.20;101459.81;5126467;27;20035;-68
2023/09/24 01:49:31;;;;;;;7.18;1.70;;;;;;;10.17;92.11;101455.25;5124757;27;20123;-68
2023/09/24 01:52:36;;;;;;;11.07;1.92;;;;;;;10.50;90.61;101460.19;5126423;27;20088;-69
2023/09/24 01:55:40;;;;;;;3.92;1.40;;;;;;;10.57;89.20;101466.94;5125537;27;20116;-69
2023/09/24 01:58:45;;;;;;;2.85;1.30;;;;;;;10.61;88.25;101468.50;5123486;27;20042;-69
2023/09/24 02:01:48;;;;;;;5.72;2.20;;;;;;;10.19;91.08;101471.75;5126743;27;20093;-69
2023/09/24 02:04:52;;;;;;;3.80;1.50;;;;;;;10.12;92.17;101472.88;5114487;27;20131;-68
2023/09/24 02:07:56;;;;;;;4.75;2.60;;;;;;;10.00;92.10;101472.38;5126514;27;20087;-69
2023/09/24 02:10:59;;;;;;;9.50;2.30;;;;;;;9.94;92.40;101477.81;5122964;27;20131;-69
2023/09/24 02:14:03;;;;;;;4.45;1.73;;;;;;;10.04;92.54;101477.50;5123366;27;20101;-69
2023/09/24 02:17:07;;;;;;;3.72;1.60;;;;;;;10.27;91.36;101485.41;5124491;27;20150;-69
2023/09/24 02:20:25;;;;;;;3.72;1.70;;;;;;;10.21;90.89;101491.72;5126455;27;20043;-68
2023/09/24 02:23:29;;;;;;;6.45;2.30;;;;;;;10.38;89.79;101493.75;5125055;27;20133;-69
2023/09/24 02:26:32;;;;;;;3.75;1.42;;;;;;;10.46;88.63;101502.19;5124309;27;20042;-68
2023/09/24 02:29:36;;;;;;;5.85;2.08;;;;;;;10.50;88.38;101502.03;5125902;27;20095;-69
2023/09/24 02:32:40;;;;;;;4.90;1.70;;;;;;;10.55;88.32;101503.59;5126679;27;20092;-69
2023/09/24 02:35:44;;;;;;;4.45;1.67;;;;;;;10.33;89.03;101502.66;5125102;27;20159;-68
2023/09/24 02:38:47;;;;;;;6.55;1.98;;;;;;;10.32;89.61;101501.81;5125787;27;20097;-69
2023/09/24 02:41:50;;;;;;;;;;;;;;;10.22;90.07;101513.47;5125708;27;20111;-68
2023/09/24 02:44:54;;;;;;;3.53;1.85;;;;;;;10.00;91.60;101510.75;5129527;27;19968;-68
2023/09/24 02:47:58;;;;;;;6.00;1.83;;;;;;;10.09;91.06;101512.19;5134064;27;20104;-68
2023/09/24 02:51:08;;;;;;;6.63;2.20;;;;;;;9.91;91.79;101517.13;5133309;27;20188;-68
2023/09/24 02:54:12;;;;;;;5.38;1.90;;;;;;;9.85;92.68;101509.47;5133899;27;20196;-68
2023/09/24 02:57:16;;;;;;;10.15;3.05;;;;;;;9.83;92.88;101508.69;5133570;27;20042;-68
2023/09/24 03:00:26;;;;;;;;;;;;;;;10.01;92.27;101521.13;5133437;27;20127;-69
2023/09/24 03:03:29;;;;;;;4.57;1.60;;;;;;;10.15;90.89;101515.44;5133859;27;19918;-68
2023/09/24 03:06:33;;;;;;;4.72;1.63;;;;;;;10.25;89.89;101518.59;5133818;27;20135;-67
2023/09/24 03:09:36;;;;;;;3.67;1.30;;;;;;;10.39;88.90;101513.75;5134952;27;20084;-68
2023/09/24 03:12:40;;;;;;;3.80;1.35;;;;;;;10.09;89.97;101517.41;5134436;27;20053;-68
2023/09/24 03:15:44;;;;;;;5.32;1.88;;;;;;;10.20;89.98;101520.50;5134599;27;20179;-68
2023/09/24 03:18:47;;;;;;;;;;;;;;;10.21;89.45;101525.69;5134964;27;20128;-68
2023/09/24 03:21:50;;;;;;;3.80;1.55;;;;;;;10.27;88.81;101529.84;5134303;27;19918;-68
2023/09/24 03:24:54;;;;;;;6.90;2.10;;;;;;;9.85;90.68;101538.22;5134407;27;20065;-69
2023/09/24 03:27:58;;;;;;;9.27;1.80;;;;;;;9.82;91.68;101540.09;5135217;27;20045;-68
2023/09/24 03:31:01;;;;;;;5.25;1.48;;;;;;;9.97;89.50;101544.81;5134342;27;20087;-69
2023/09/24 03:34:04;;;;;;;5.93;1.30;;;;;;;10.13;88.12;101535.53;5134290;27;20111;-69
2023/09/24 03:37:09;;;;;;;2.72;0.98;;;;;;;10.16;87.02;101537.19;5133421;27;20087;-68
2023/09/24 03:40:15;;;;;;;3.00;1.50;;;;;;;10.08;87.40;101537.44;5134999;27;20119;-68
2023/09/24 03:43:18;;;;;;;3.15;1.10;;;;;;;10.07;87.69;101532.28;5133802;27;20038;-69
2023/09/24 03:46:21;;;;;;;3.25;1.30;;;;;;;10.02;87.55;101538.53;5134039;27;20087;-69
2023/09/24 03:49:25;;;;;;;2.42;1.00;;;;;;;9.99;87.19;101549.09;5133908;27;20510;-68
2023/09/24 03:52:30;;;;;;;2.40;1.20;;;;;;;10.04;87.22;101540.22;5134964;27;20129;-68
2023/09/24 03:55:35;;;;;;;2.10;1.15;;;;;;;9.97;87.64;101555.25;5134657;27;20551;-68
2023/09/24 03:58:38;;;;;;;11.90;1.30;;;;;;;9.79;88.65;101551.47;5132517;27;20063;-68
2023/09/24 04:01:43;;;;;;;3.55;1.40;;;;;;;9.83;89.29;101553.09;5133041;27;20080;-68
2023/09/24 04:04:47;;;;;;;6.65;1.77;;;;;;;9.90;89.83;101557.22;5133579;27;20038;-68
2023/09/24 04:07:54;;;;;;;4.20;1.48;;;;;;;10.00;89.93;101560.38;5132964;27;20046;-68
2023/09/24 04:10:58;;;;;;;4.65;0.98;;;;;;;9.97;87.79;101565.72;5116534;27;20066;-68
2023/09/24 04:14:02;;;;;;;1.75;0.85;;;;;;;9.95;87.83;101565.75;5122536;27;20047;-68
2023/09/24 04:17:07;;;;;;;4.00;0.95;;;;;;;9.90;88.08;101567.66;5133912;27;20051;-68
2023/09/24 04:20:15;;;;;;;21.48;1.83;;;;;;;9.54;90.67;101578.41;5123055;27;20096;-68
2023/09/24 04:23:19;;;;;;;2.97;1.50;;;;;;;9.75;90.69;101586.44;5113106;28;20054;-68
2023/09/24 04:26:23;;;;;;;3.65;1.50;;;;;;;9.76;90.21;101583.81;5112667;28;20046;-68
2023/09/24 04:29:27;;;;;;;3.10;1.13;;;;;;;9.74;90.24;101585.59;5128646;27;20042;-69
2023/09/24 04:32:31;;;;;;;4.50;1.40;;;;;;;9.74;90.26;101585.59;5133429;27;20458;-69
2023/09/24 04:35:35;;;;;;;4.55;1.30;;;;;;;9.84;89.97;101596.59;5133646;27;20057;-68
2023/09/24 04:38:40;;;;;;;3.75;1.13;;;;;;;9.87;89.23;101601.72;5133118;27;20042;-68
2023/09/24 04:41:47;;;;;;;4.38;1.30;;;;;;;9.89;89.40;101609.50;5133909;27;20078;-68
2023/09/24 04:44:51;;;;;;;3.10;1.50;;;;;;;9.85;88.89;101611.34;5134032;27;20074;-68
2023/09/24 04:47:54;;;;;;;;;;;;;;;9.79;89.75;101608.94;5133993;27;20042;-68
2023/09/24 04:50:57;;;;;;;4.50;1.40;;;;;;;9.83;89.17;101634.09;5132805;28;19957;-68
2023/09/24 04:54:00;;;;;;;4.00;1.25;;;;;;;9.78;89.35;101639.44;5132758;28;20042;-68
2023/09/24 04:57:04;;;;;;;3.92;1.50;;;;;;;9.57;90.55;101636.63;5131245;28;20066;-68
2023/09/24 05:00:10;;;;;;;4.30;1.10;;;;;;;9.66;90.51;101638.97;5115428;28;20104;-68
2023/09/24 05:03:14;;;;;;;3.95;1.42;;;;;;;9.68;90.21;101639.78;5113142;28;20173;-68
2023/09/24 05:06:18;;;;;;;;;;;;;;;9.71;90.75;101640.53;5113567;28;20348;-68
2023/09/24 05:09:23;;;;;;;5.45;1.30;;;;;;;9.70;90.86;101640.56;5112247;28;20354;-68
2023/09/24 05:12:26;;;;;;;3.03;1.33;;;;;;;9.70;90.67;101645.78;5112790;28;20557;-68
2023/09/24 05:15:29;;;;;;;6.00;1.30;;;;;;;9.78;90.71;101655.09;5115984;28;20069;-68
2023/09/24 05:18:33;;;;;;;2.67;1.42;;;;;;;9.66;90.27;101646.78;5112652;28;20042;-68
2023/09/24 05:21:36;;;;;;;4.25;1.75;;;;;;;9.54;90.92;101656.72;5111085;28;20081;-68
2023/09/24 05:24:39;;;;;;;4.75;1.20;;;;;;;9.43;92.56;101656.19;5110603;28;20085;-68
2023/09/24 05:27:43;;;;;;;;;;;;;;;9.22;93.52;101656.78;5112008;28;20050;-68
2023/09/24 05:30:53;;;;;;;3.80;1.57;;;;;;;9.40;92.84;101669.31;5120421;28;19917;-68
2023/09/24 05:33:56;;;;;;;4.22;2.22;;;;;;;9.46;91.86;101671.75;5131759;28;20322;-68
2023/09/24 05:37:00;;;;;;;3.65;1.20;;;;;;;9.50;91.14;101681.19;5131594;28;20371;-69
2023/09/24 05:40:04;;;;;;;5.53;1.70;;;;;;;9.48;90.71;101690.00;5130590;28;20050;-68
2023/09/24 05:43:08;;;;;;;3.05;1.10;;;;;;;9.46;90.92;101684.81;5129866;28;20053;-68
2023/09/24 05:46:11;;;;;;;9.50;1.33;;;;;;;9.43;90.68;101692.72;5129703;28;20050;-69
2023/09/24 05:49:14;;;;;;;;;;;;;;;9.46;90.57;101695.25;5113520;28;20138;-68
2023/09/24 05:52:18;;;;;;;2.70;1.25;;;;;;;9.37;90.54;101708.56;5109856;28;20384;-69
2023/09/24 05:55:21;;;;;;;;;;;;;;;9.43;90.25;101711.00;5111424;28;20085;-69
2023/09/24 05:58:24;;;;;;;2.10;1.03;;;;;;;9.45;90.26;101709.22;5111140;28;20416;-69
2023/09/24 06:01:28;;;;;;;;;;;;;;;9.41;91.23;101714.53;5128376;27;20112;-69
2023/09/24 06:04:31;;;;;;;3.28;1.00;;;;;;;9.46;91.07;101710.06;5135165;27;19918;-68
2023/09/24 06:07:34;;;;;;;2.28;0.93;;;;;;;9.57;90.86;101712.34;5135183;27;20049;-69
2023/09/24 06:10:44;;;;;;;;;;;;;;;9.57;89.57;101717.56;5125014;27;20046;-69
2023/09/24 06:13:48;;;;;;;4.05;0.82;;;;;;;9.57;89.54;101720.19;5128452;27;19959;-68
2023/09/24 06:16:51;;;;;;;2.75;0.88;;;;;;;9.60;89.73;101728.78;5134698;27;20181;-69
2023/09/24 06:19:55;;;;;;;;;;;;;;;9.62;89.48;101733.97;5132454;27;20144;-69
2023/09/24 06:22:59;;;;;;;5.25;0.73;;;;;;;9.65;89.11;101732.13;5123171;27;19987;-69
2023/09/24 06:26:04;;;;;;;;;;;;;;;9.62;89.35;101749.63;5119431;27;20084;-68
2023/09/24 06:29:08;;;;;;;2.75;1.08;;;;;;;9.47;88.18;101749.16;5134832;27;19938;-79
2023/09/24 06:32:12;;;;;;;2.35;0.75;;;;;;;9.47;88.27;101759.59;5134763;27;20046;-69
2023/09/24 06:35:15;;;;;;;2.50;0.70;;;;;;;9.40;88.69;101757.22;5134393;27;20050;-70
2023/09/24 06:38:18;;;;;;;;;;;;;;;9.49;88.43;101757.81;5134796;27;20103;-70
2023/09/24 06:41:22;;;;;;;2.58;0.90;;;;;;;9.53;88.44;101750.75;5134407;27;19917;-70
2023/09/24 06:44:26;;;;;;;2.45;1.38;;;;;;;9.64;88.48;101745.25;5134455;27;20085;-72
2023/09/24 06:47:29;;;;;;;2.40;1.20;;;;;;;9.79;88.05;101750.00;5132619;27;20049;-72
2023/09/24 06:50:34;;;;;;;4.70;1.30;;;;;;;9.55;88.95;101749.81;5124906;27;20088;-72
2023/09/24 06:53:39;;;;;;;2.38;1.13;;;;;;;9.53;90.24;101746.38;5121942;27;20464;-71
2023/09/24 06:56:42;;;;;;;5.25;1.33;;;;;;;9.62;89.36;101747.88;5116403;27;20137;-71
2023/09/24 06:59:46;;;;;;;2.90;1.58;;;;;;;9.64;90.20;101755.69;5121365;27;20100;-73
2023/09/24 07:02:50;;;;;;;2.55;1.10;;;;;;;9.62;90.48;101758.31;5121020;27;20097;-72
2023/09/24 07:05:54;;;;;;;2.22;0.90;;;;;;;9.72;89.25;101759.78;5123311;27;20510;-73
2023/09/24 07:08:59;;;;;;;3.20;0.70;;;;;;;9.73;89.46;101766.72;5120802;27;20038;-73
2023/09/24 07:12:02;;;;;;;1.52;0.65;;;;;;;9.83;89.36;101769.91;5118171;27;20054;-72
2023/09/24 07:15:06;;;;;;;1.52;0.60;;;;;;;9.59;89.28;101771.47;5125746;27;20058;-73
2023/09/24 07:18:11;;;;;;;1.40;0.52;;;;;;;9.66;90.09;101765.16;5128403;27;20095;-73
2023/09/24 07:21:15;;;;;;;1.73;0.63;;;;;;;9.66;89.54;101769.53;5126519;27;20042;-72
2023/09/24 07:24:19;;;;;;;1.83;0.60;;;;;;;9.90;89.00;101768.84;5126153;27;20134;-73
2023/09/24 07:27:24;;;;;;;1.58;0.65;;;;;;;10.08;88.64;101767.41;5121675;27;20061;-73
2023/09/24 07:30:27;;;;;;;1.23;0.40;;;;;;;10.23;88.71;101769.56;5122654;27;20035;-73
2023/09/24 07:33:32;;;;;;;;;;;;;;;10.07;88.57;101770.94;5123901;27;20064;-73
2023/09/24 07:36:36;;;;;;;1.30;0.50;;;;;;;10.07;88.74;101765.72;5123656;27;20004;-73
2023/09/24 07:39:40;;;;;;;3.05;0.50;;;;;;;10.11;88.86;101764.69;5121394;27;20164;-72
2023/09/24 07:42:46;;;;;;;3.45;2.28;;;;;;;9.94;89.39;101764.38;5119909;27;20197;-71
2023/09/24 07:45:50;;;;;;;1.50;0.50;;;;;;;10.07;89.12;101765.72;5122714;27;20080;-73
2023/09/24 07:48:53;;;;;;;;;;;;;;;10.23;89.60;101772.16;5122777;27;20112;-73
2023/09/24 07:51:58;;;;;;;1.63;0.52;;;;;;;10.29;90.01;101776.41;5122885;27;20010;-73
2023/09/24 07:55:02;;;;;;;1.17;0.40;;;;;;;10.23;90.14;101766.94;5121238;27;20042;-73
2023/09/24 07:58:06;;;;;;;1.67;0.52;;;;;;;10.32;91.16;101760.63;5122176;27;20103;-72
2023/09/24 08:01:10;;;;;;;;;;;;;;;10.52;91.48;101766.97;5122448;27;20135;-73
2023/09/24 08:04:16;;;;;;;1.40;0.60;;;;;;;10.66;91.02;101764.78;5122949;27;19918;-75
2023/09/24 08:07:19;;;;;;;1.50;0.80;;;;;;;10.67;91.17;101758.63;5122825;27;20091;-77
2023/09/24 08:10:23;;;;;;;1.60;0.60;;;;;;;10.69;91.68;101762.91;5120891;27;20473;-72
2023/09/24 08:13:27;;;;;;;1.98;0.52;;;;;;;10.46;93.51;101763.66;5121837;27;20127;-71
2023/09/24 08:16:31;;;;;;;3.60;0.77;;;;;;;10.58;93.47;101756.31;5122514;27;20042;-71
2023/09/24 08:19:34;;;;;;;6.13;0.90;;;;;;;10.75;93.07;101759.22;5122644;27;20058;-70
2023/09/24 08:22:38;;;;;;;5.20;1.13;;;;;;;10.97;92.57;101758.50;5134569;27;20100;-68
2023/09/24 08:25:41;;;;;;;2.35;1.05;;;;;;;11.13;91.79;101767.53;5134147;27;20087;-68
2023/09/24 08:28:44;;;;;;;1.98;0.77;;;;;;;11.25;92.20;101763.63;5134159;27;20061;-69
2023/09/24 08:31:47;;;;;;;;;;;;;;;11.38;91.34;101760.50;5117401;27;20051;-69
2023/09/24 08:34:50;;;;;;;3.47;1.17;;;;;;;11.38;91.97;101759.66;5113585;28;20500;-73
2023/09/24 08:37:56;;;;;;;3.53;1.00;;;;;;;11.51;92.35;101762.69;5117700;27;20050;-71
2023/09/24 08:40:59;;;;;;;10.93;1.00;;;;;;;11.69;94.24;101758.56;5124204;27;20116;-69
2023/09/24 08:44:05;;;;;;;4.43;1.02;;;;;;;11.84;93.36;101752.75;5124051;27;20062;-71
2023/09/24 08:47:09;;;;;;;4.47;1.20;;;;;;;11.93;92.76;101751.56;5122680;27;20403;-71
2023/09/24 08:50:14;;;;;;;3.03;1.20;;;;;;;12.02;91.13;101745.97;5122415;27;20091;-71
2023/09/24 08:53:17;;;;;;;2.50;0.85;;;;;;;12.01;90.49;101741.63;5122552;28;20517;-70
2023/09/24 08:56:31;;;;;;;2.97;1.10;;;;;;;12.17;90.94;101737.50;5122505;28;20038;-70
2023/09/24 08:59:35;;;;;;;2.25;0.95;;;;;;;12.34;92.33;101742.06;5121020;28;20046;-70
2023/09/24 09:02:43;;;;;;;4.47;1.13;;;;;;;12.46;91.69;101738.09;5121152;28;20049;-70
2023/09/24 09:05:49;;;;;;;4.20;1.15;;;;;;;12.53;90.02;101739.56;5122136;28;20046;-70
2023/09/24 09:08:53;;;;;;;3.08;0.90;;;;;;;12.50;89.93;101737.91;5121941;28;20049;-70
2023/09/24 09:11:56;;;;;;;4.32;1.20;;;;;;;12.64;90.48;101729.47;5119017;28;20046;-71
2023/09/24 09:15:00;;;;;;;6.80;1.40;;;;;;;12.82;91.08;101722.59;5121968;28;20050;-71
2023/09/24 09:18:05;;;;;;;3.95;1.10;;;;;;;12.89;91.18;101720.53;5122709;28;20074;-70
2023/09/24 09:21:08;;;;;;;4.95;1.25;;;;;;;13.03;89.88;101720.81;5123255;28;20043;-71
2023/09/24 09:24:25;;;;;;;2.63;0.98;;;;;;;13.13;88.84;101719.50;5122186;28;20038;-75
2023/09/24 09:27:33;;;;;;;2.10;0.80;;;;;;;13.41;88.99;101726.19;5120960;28;20046;-69
2023/09/24 09:30:36;;;;;;;3.58;1.00;;;;;;;13.55;86.79;101726.41;5119363;28;20059;-67
2023/09/24 09:33:45;;;;;;;4.47;0.85;;;;;;;13.73;86.14;101712.41;5119784;28;20061;-67
2023/09/24 09:36:49;;;;;;;4.10;1.02;;;;;;;13.98;85.41;101719.16;5123885;27;20051;-68
2023/09/24 09:39:53;;;;;;;3.10;0.93;;;;;;;14.06;84.24;101709.13;5125125;27;20168;-69
2023/09/24 09:42:58;;;;;;;2.60;1.00;;;;;;;14.14;84.94;101711.41;5123945;27;20574;-66
2023/09/24 09:46:05;;;;;;;3.10;0.95;;;;;;;14.23;84.22;101705.69;5123920;27;20086;-65
2023/09/24 09:49:10;;;;;;;3.78;0.95;;;;;;;14.34;84.58;101698.09;5125060;27;20088;-67
2023/09/24 09:52:19;;;;;;;5.43;1.40;;;;;;;14.46;84.58;101690.56;5122117;27;20038;-67
2023/09/24 09:55:24;;;;;;;4.22;1.10;;;;;;;14.62;84.62;101687.09;5124304;27;20047;-68
2023/09/24 09:58:33;;;;;;;5.35;0.90;;;;;;;14.67;83.83;101689.47;5126103;27;20120;-67
2023/09/24 10:01:37;;;;;;;7.47;1.90;;;;;;;14.88;84.89;101682.28;5122486;27;20081;-76
2023/09/24 10:04:41;;;;;;;13.13;3.40;;;;;;;15.02;84.76;101690.28;5135121;27;20089;-76
2023/09/24 10:07:44;;;;;;;3.92;1.42;;;;;;;15.07;82.99;101677.75;5127532;27;20097;-78
2023/09/24 10:10:52;;;;;;;4.00;1.25;;;;;;;15.05;82.85;101674.31;5122878;27;20115;-78
2023/09/24 10:13:56;;;;;;;5.90;0.95;;;;;;;15.05;81.13;101674.31;5123019;27;20054;-75
2023/09/24 10:17:22;;;;;;;5.20;1.50;;;;;;;15.05;81.62;101669.06;5124955;27;20062;-78
2023/09/24 10:20:55;;;;;;;4.82;1.77;;;;;;;15.06;82.84;101654.09;5124796;27;20050;-79
2023/09/24 10:24:12;;;;;;;3.67;1.38;;;;;;;15.05;82.74;101657.69;5124770;27;20042;-77
2023/09/24 10:27:20;;;;;;;5.20;1.40;;;;;;;15.21;82.59;101652.44;5124201;27;20100;-76
2023/09/24 10:30:24;;;;;;;4.15;1.58;;;;;;;15.38;81.06;101654.16;5124691;27;20050;-78
2023/09/24 10:33:45;;;;;;;;;;;;;;;15.63;80.18;101656.31;5112727;27;20131;-81
2023/09/24 10:37:09;;;;;;;3.95;1.30;;;;;;;15.58;79.07;101651.28;5124935;27;19922;-80
2023/09/24 10:40:14;;;;;;;5.75;1.75;;;;;;;15.64;80.50;101647.47;5124271;27;20104;-77
2023/09/24 10:43:18;;;;;;;3.97;1.55;;;;;;;15.72;78.64;101635.56;5123012;27;20176;-79
2023/09/24 10:46:27;;;;;;;5.07;1.48;;;;;;;15.80;77.51;101635.16;5122901;27;20084;-76
2023/09/24 10:49:31;;;;;;;8.02;1.40;;;;;;;15.92;77.75;101633.59;5125092;27;20084;-77
2023/09/24 10:52:53;;;;;;;4.47;1.30;;;;;;;15.99;77.37;101625.25;5124334;27;20034;-76
2023/09/24 10:55:57;;;;;;;5.35;1.92;;;;;;;16.02;77.46;101622.44;5122499;27;20037;-76
2023/09/24 10:59:00;;;;;;;9.00;2.30;;;;;;;16.07;77.51;101626.59;5123015;27;20078;-77
2023/09/24 11:02:19;;;;;;;3.60;1.45;;;;;;;16.23;76.65;101622.13;5110860;27;20109;-77
2023/09/24 11:09:17;;;;;;;4.63;1.40;;;;;;;16.24;73.14;101618.53;5122111;27;20088;-75
2023/09/24 11:12:21;;;;;;;8.02;2.40;;;;;;;16.33;71.75;101610.09;5122589;27;20042;-68
2023/09/24 11:15:28;;;;;;;5.72;1.55;;;;;;;16.47;70.94;101612.78;5123228;27;20031;-67
2023/09/24 11:18:32;;;;;;;5.97;1.80;;;;;;;16.54;75.39;101609.75;5123628;27;20092;-71
2023/09/24 11:21:35;;;;;;;12.45;1.95;;;;;;;16.83;72.36;101611.50;5121846;27;20089;-70
2023/09/24 11:24:39;;;;;;;6.28;1.85;;;;;;;16.93;70.51;101607.34;5109726;27;20157;-71
2023/09/24 11:27:47;;;;;;;6.93;1.67;;;;;;;17.02;71.91;101597.16;5122439;27;20096;-71
2023/09/24 11:30:51;;;;;;;5.70;1.50;;;;;;;17.07;69.21;101598.59;5123520;27;20152;-71
2023/09/24 11:33:56;;;;;;;4.80;1.92;;;;;;;17.14;69.86;101596.41;5123384;27;20042;-71
2023/09/24 11:37:05;;;;;;;4.05;0.93;;;;;;;17.14;63.65;101589.31;5122251;27;20096;-71
2023/09/24 11:40:30;;;;;;;2.53;0.98;;;;;;;17.34;64.36;101588.06;5121208;27;20411;-72
2023/09/24 11:43:35;;;;;;;3.72;1.05;;;;;;;17.48;64.70;101575.75;5121704;27;20552;-71
2023/09/24 11:46:40;;;;;;;4.25;0.98;;;;;;;17.59;62.62;101574.09;5122302;27;20192;-70
2023/09/24 11:49:43;;;;;;;3.22;1.15;;;;;;;17.81;63.45;101570.94;5123518;27;20046;-71
2023/09/24 11:52:47;;;;;;;6.78;1.58;;;;;;;17.84;64.72;101572.53;5123112;27;20038;-69
2023/09/24 11:55:54;;;;;;;5.45;0.82;;;;;;;18.01;63.02;101569.59;5120904;27;20058;-72
2023/09/24 11:58:59;;;;;;;2.72;0.77;;;;;;;18.26;61.23;101560.03;5121255;27;20165;-72
2023/09/24 12:02:03;;;;;;;6.60;1.20;;;;;;;18.41;61.17;101560.75;5122609;27;20088;-70
2023/09/24 12:05:06;;;;;;;3.42;1.10;;;;;;;18.57;60.29;101556.13;5123264;27;20057;-69
2023/09/24 12:08:09;;;;;;;5.80;1.50;;;;;;;18.65;60.99;101550.25;5122549;27;20065;-67
2023/09/24 12:11:13;;;;;;;5.95;2.05;;;;;;;18.93;58.46;101551.84;5119715;27;20448;-68
2023/09/24 12:14:17;;;;;;;5.00;1.38;;;;;;;19.27;57.72;101543.16;5120338;27;20602;-72
2023/09/24 12:17:20;;;;;;;5.20;1.05;;;;;;;19.64;56.68;101537.81;5121815;27;20101;-74
2023/09/24 12:20:29;;;;;;;3.70;1.00;;;;;;;20.08;55.92;101530.97;5122402;27;20038;-73
2023/09/24 12:23:39;;;;;;;3.67;1.60;;;;;;;20.45;54.18;101541.41;5120850;27;20038;-74
2023/09/24 12:26:43;;;;;;;5.43;1.30;;;;;;;19.75;55.46;101539.69;5115941;27;20042;-72
2023/09/24 12:29:49;;;;;;;3.42;1.13;;;;;;;19.27;53.84;101539.66;5122448;27;20142;-72
2023/09/24 12:32:53;;;;;;;3.95;1.08;;;;;;;20.23;51.48;101522.78;5121168;27;20070;-71
2023/09/24 12:35:57;;;;;;;4.03;1.63;;;;;;;20.69;48.50;101529.88;5120990;27;20043;-71
2023/09/24 12:39:01;;;;;;;4.60;1.13;;;;;;;21.14;46.98;101531.50;5121663;27;20035;-71
2023/09/24 12:42:04;;;;;;;2.65;0.90;;;;;;;21.26;45.22;101518.19;5122242;27;20139;-71
2023/09/24 12:45:48;;;;;;;4.43;1.20;;;;;;;21.49;49.30;101513.66;5122120;27;20038;-67
2023/09/24 12:48:51;;;;;;;5.32;1.90;;;;;;;21.50;45.65;101510.00;5118965;27;20471;-68
2023/09/24 12:51:57;;;;;;;3.72;1.20;;;;;;;21.71;44.76;101510.88;5120593;27;20096;-67
2023/09/24 12:55:02;;;;;;;4.22;0.95;;;;;;;22.20;44.27;101508.56;5120650;28;20047;-66
2023/09/24 12:58:06;;;;;;;3.78;1.35;;;;;;;22.63;43.53;101512.84;5122152;28;20034;-65
2023/09/24 13:01:13;;;;;;;5.25;1.70;;;;;;;23.30;40.40;101506.88;5120480;28;20485;-67
2023/09/24 13:04:17;;;;;;;14.18;8.43;;;;;;;24.28;40.24;101504.94;5120712;28;20088;-65
2023/09/24 13:07:20;;;;;;;6.07;3.75;;;;;;;24.86;36.21;101503.91;5121368;28;20066;-68
2023/09/24 13:10:24;;;;;;;4.93;1.58;;;;;;;25.48;33.81;101495.00;5122927;27;20046;-66
2023/09/24 13:13:28;;;;;;;2.50;1.20;;;;;;;26.95;30.30;101487.00;5126055;27;20045;-74
2023/09/24 13:16:32;;;;;;;2.92;1.25;;;;;;;30.81;24.91;101483.00;5124408;27;20034;-75
2023/09/24 13:19:35;;;;;;;3.58;1.15;;;;;;;28.78;27.65;101478.47;5125458;27;20042;-67
2023/09/24 13:22:39;;;;;;;5.13;1.45;;;;;;;30.05;25.21;101482.34;5126082;27;20382;-67
2023/09/24 13:25:45;;;;;;;4.75;2.92;;;;;;;33.50;21.17;101472.59;5125673;27;20080;-66
2023/09/24 13:28:48;;;;;;;6.72;5.47;;;;;;;35.25;20.27;101481.63;5125943;27;20167;-68
2023/09/24 13:31:53;;;;;;;2.95;1.40;;;;;;;34.75;19.41;101475.22;5123907;27;20100;-68
2023/09/24 13:34:57;;;;;;;2.95;1.40;;;;;;;36.07;17.32;101467.94;5124691;27;20437;-67
2023/09/24 13:38:00;;;;;;;3.78;1.05;;;;;;;35.25;18.66;101473.47;5124743;27;20443;-67
2023/09/24 13:41:04;;;;;;;4.03;1.15;;;;;;;35.59;18.38;101463.19;5123395;27;20049;-67
2023/09/24 13:44:08;;;;;;;3.83;1.48;;;;;;;35.46;18.33;101466.81;5125809;27;20061;-67
2023/09/24 13:47:15;;;;;;;4.72;1.65;;;;;;;35.64;19.39;101463.31;5121976;27;20096;-66
2023/09/24 13:50:18;;;;;;;3.05;1.27;;;;;;;35.47;18.13;101454.03;5123785;27;20510;-74
2023/09/24 13:53:25;;;;;;;5.60;2.72;;;;;;;35.44;19.73;101455.31;5124930;27;20430;-72
2023/09/24 13:56:29;;;;;;;2.53;1.40;;;;;;;33.14;23.35;101460.25;5119687;27;20059;-69
2023/09/24 13:59:34;;;;;;;5.18;2.33;;;;;;;28.57;26.03;101470.16;5124355;27;20046;-72
2023/09/24 14:02:37;;;;;;;3.38;1.38;;;;;;;33.10;21.70;101459.81;5119181;27;20097;-67
2023/09/24 14:05:41;;;;;;;6.28;1.85;;;;;;;34.70;19.49;101454.16;5125078;27;20146;-70
2023/09/24 14:12:21;;;;;;;3.97;2.63;;;;;;;38.61;16.49;101456.28;5122274;27;20567;-70
2023/09/24 14:15:24;;;;;;;4.10;1.48;;;;;;;36.26;18.47;101449.72;5124816;27;20118;-70
2023/09/24 14:18:29;;;;;;;3.08;1.30;;;;;;;37.68;17.60;101447.16;5122982;27;20061;-68
2023/09/24 14:21:34;;;;;;;5.15;1.55;;;;;;;38.31;16.92;101439.25;5124129;27;20086;-70
2023/09/24 14:24:38;;;;;;;5.28;1.75;;;;;;;39.14;16.41;101443.28;5124601;27;20038;-69
2023/09/24 14:27:42;;;;;;;3.35;1.30;;;;;;;35.65;16.81;101454.13;5124761;27;20414;-69
2023/09/24 14:30:45;;;;;;;3.70;1.70;;;;;;;33.19;19.55;101459.63;5124510;27;20091;-72
2023/09/24 14:33:51;;;;;;;3.20;1.17;;;;;;;32.95;19.46;101453.72;5122864;27;20037;-71
2023/09/24 14:37:13;;;;;;;5.05;1.20;;;;;;;35.26;19.57;101460.69;5122708;27;20038;-70